sensor_id;sensor_type;location;lat;lon;timestamp;temperature;humidity
42037;DHT22;75222;52.004;5.908;2024-03-02T00:01:12;9.50;74.50
42037;DHT22;75222;52.004;5.908;2024-03-02T00:03:38;9.60;74.70
42037;DHT22;75222;52.004;5.908;2024-03-02T00:06:04;9.60;74.70
42037;DHT22;75222;52.004;5.908;2024-03-02T00:08:30;9.60;74.70
42037;DHT22;75222;52.004;5.908;2024-03-02T00:11:01;9.60;74.80
42037;DHT22;75222;52.004;5.908;2024-03-02T00:13:29;9.60;74.80
42037;DHT22;75222;52.004;5.908;2024-03-02T00:15:56;9.60;74.80
42037;DHT22;75222;52.004;5.908;2024-03-02T00:18:30;9.60;74.80
42037;DHT22;75222;52.004;5.908;2024-03-02T00:20:57;9.60;74.90
42037;DHT22;75222;52.004;5.908;2024-03-02T00:23:24;9.60;74.70
42037;DHT22;75222;52.004;5.908;2024-03-02T00:25:51;9.60;74.90
42037;DHT22;75222;52.004;5.908;2024-03-02T00:28:22;9.50;74.90
42037;DHT22;75222;52.004;5.908;2024-03-02T00:33:22;9.50;75.00
42037;DHT22;75222;52.004;5.908;2024-03-02T00:35:49;9.50;75.10
42037;DHT22;75222;52.004;5.908;2024-03-02T00:38:15;9.60;75.10
42037;DHT22;75222;52.004;5.908;2024-03-02T00:40:42;9.50;75.00
42037;DHT22;75222;52.004;5.908;2024-03-02T00:46:03;9.60;74.90
42037;DHT22;75222;52.004;5.908;2024-03-02T00:48:29;9.60;74.90
42037;DHT22;75222;52.004;5.908;2024-03-02T00:50:56;9.70;74.80
42037;DHT22;75222;52.004;5.908;2024-03-02T00:53:25;9.60;74.70
42037;DHT22;75222;52.004;5.908;2024-03-02T00:55:51;9.70;74.80
42037;DHT22;75222;52.004;5.908;2024-03-02T00:58:17;9.70;74.80
42037;DHT22;75222;52.004;5.908;2024-03-02T01:00:45;9.70;74.60
42037;DHT22;75222;52.004;5.908;2024-03-02T01:03:11;9.70;74.80
42037;DHT22;75222;52.004;5.908;2024-03-02T01:05:41;9.70;74.80
42037;DHT22;75222;52.004;5.908;2024-03-02T01:08:07;9.70;74.70
42037;DHT22;75222;52.004;5.908;2024-03-02T01:10:33;9.70;74.70
42037;DHT22;75222;52.004;5.908;2024-03-02T01:12:58;9.70;74.80
42037;DHT22;75222;52.004;5.908;2024-03-02T01:15:24;9.70;74.60
42037;DHT22;75222;52.004;5.908;2024-03-02T01:17:49;9.70;74.80
42037;DHT22;75222;52.004;5.908;2024-03-02T01:20:15;9.70;74.80
42037;DHT22;75222;52.004;5.908;2024-03-02T01:22:41;9.80;74.80
42037;DHT22;75222;52.004;5.908;2024-03-02T01:25:08;9.80;74.80
42037;DHT22;75222;52.004;5.908;2024-03-02T01:27:34;9.80;74.90
42037;DHT22;75222;52.004;5.908;2024-03-02T01:29:59;9.80;74.90
42037;DHT22;75222;52.004;5.908;2024-03-02T01:32:25;9.80;75.00
42037;DHT22;75222;52.004;5.908;2024-03-02T01:34:51;9.80;75.00
42037;DHT22;75222;52.004;5.908;2024-03-02T01:37:16;9.90;75.00
42037;DHT22;75222;52.004;5.908;2024-03-02T01:39:42;9.90;75.00
42037;DHT22;75222;52.004;5.908;2024-03-02T01:42:07;9.90;74.90
42037;DHT22;75222;52.004;5.908;2024-03-02T01:44:33;9.90;75.00
42037;DHT22;75222;52.004;5.908;2024-03-02T01:46:59;9.90;75.00
42037;DHT22;75222;52.004;5.908;2024-03-02T01:49:24;9.90;75.10
42037;DHT22;75222;52.004;5.908;2024-03-02T01:51:50;9.80;75.60
42037;DHT22;75222;52.004;5.908;2024-03-02T01:54:16;9.80;76.00
42037;DHT22;75222;52.004;5.908;2024-03-02T01:56:41;9.80;76.10
42037;DHT22;75222;52.004;5.908;2024-03-02T01:59:07;9.80;76.30
42037;DHT22;75222;52.004;5.908;2024-03-02T02:01:32;9.80;76.40
42037;DHT22;75222;52.004;5.908;2024-03-02T02:03:58;9.80;76.50
42037;DHT22;75222;52.004;5.908;2024-03-02T02:06:23;9.80;76.50
42037;DHT22;75222;52.004;5.908;2024-03-02T02:08:49;9.90;76.50
42037;DHT22;75222;52.004;5.908;2024-03-02T02:11:15;9.90;76.70
42037;DHT22;75222;52.004;5.908;2024-03-02T02:13:41;9.80;76.70
42037;DHT22;75222;52.004;5.908;2024-03-02T02:16:07;9.90;76.80
42037;DHT22;75222;52.004;5.908;2024-03-02T02:18:34;9.80;76.90
42037;DHT22;75222;52.004;5.908;2024-03-02T02:20:59;9.80;77.20
42037;DHT22;75222;52.004;5.908;2024-03-02T02:23:25;9.80;77.30
42037;DHT22;75222;52.004;5.908;2024-03-02T02:25:50;9.70;77.30
42037;DHT22;75222;52.004;5.908;2024-03-02T02:28:16;9.70;77.50
42037;DHT22;75222;52.004;5.908;2024-03-02T02:30:42;9.70;77.70
42037;DHT22;75222;52.004;5.908;2024-03-02T02:33:08;9.70;77.90
42037;DHT22;75222;52.004;5.908;2024-03-02T02:35:34;9.70;77.90
42037;DHT22;75222;52.004;5.908;2024-03-02T02:38:00;9.70;77.90
42037;DHT22;75222;52.004;5.908;2024-03-02T02:40:27;9.70;77.90
42037;DHT22;75222;52.004;5.908;2024-03-02T02:42:56;9.70;77.90
42037;DHT22;75222;52.004;5.908;2024-03-02T02:45:21;9.70;77.90
42037;DHT22;75222;52.004;5.908;2024-03-02T02:47:47;9.70;78.00
42037;DHT22;75222;52.004;5.908;2024-03-02T02:50:13;9.70;78.00
42037;DHT22;75222;52.004;5.908;2024-03-02T02:52:40;9.70;78.00
42037;DHT22;75222;52.004;5.908;2024-03-02T02:55:07;9.70;78.00
42037;DHT22;75222;52.004;5.908;2024-03-02T02:57:34;9.70;78.00
42037;DHT22;75222;52.004;5.908;2024-03-02T03:00:10;9.60;78.00
42037;DHT22;75222;52.004;5.908;2024-03-02T03:02:39;9.70;78.10
42037;DHT22;75222;52.004;5.908;2024-03-02T03:05:07;9.70;78.20
42037;DHT22;75222;52.004;5.908;2024-03-02T03:07:33;9.70;78.20
42037;DHT22;75222;52.004;5.908;2024-03-02T03:10:00;9.60;78.10
42037;DHT22;75222;52.004;5.908;2024-03-02T03:12:25;9.60;78.20
42037;DHT22;75222;52.004;5.908;2024-03-02T03:14:51;9.60;78.20
42037;DHT22;75222;52.004;5.908;2024-03-02T03:17:17;9.60;78.30
42037;DHT22;75222;52.004;5.908;2024-03-02T03:19:42;9.50;78.20
42037;DHT22;75222;52.004;5.908;2024-03-02T03:22:08;9.50;78.30
42037;DHT22;75222;52.004;5.908;2024-03-02T03:24:34;9.50;78.40
42037;DHT22;75222;52.004;5.908;2024-03-02T03:26:59;9.40;78.40
42037;DHT22;75222;52.004;5.908;2024-03-02T03:29:25;9.40;78.50
42037;DHT22;75222;52.004;5.908;2024-03-02T03:31:50;9.50;78.50
42037;DHT22;75222;52.004;5.908;2024-03-02T03:34:16;9.40;78.50
42037;DHT22;75222;52.004;5.908;2024-03-02T03:36:42;9.40;78.70
42037;DHT22;75222;52.004;5.908;2024-03-02T03:39:07;9.40;78.80
42037;DHT22;75222;52.004;5.908;2024-03-02T03:41:33;9.40;78.80
42037;DHT22;75222;52.004;5.908;2024-03-02T03:43:58;9.40;79.00
42037;DHT22;75222;52.004;5.908;2024-03-02T03:46:24;9.30;79.10
42037;DHT22;75222;52.004;5.908;2024-03-02T03:48:49;9.30;79.10
42037;DHT22;75222;52.004;5.908;2024-03-02T03:51:15;9.30;79.30
42037;DHT22;75222;52.004;5.908;2024-03-02T03:53:41;9.30;79.50
42037;DHT22;75222;52.004;5.908;2024-03-02T03:56:06;9.20;79.60
42037;DHT22;75222;52.004;5.908;2024-03-02T03:58:32;9.20;79.80
42037;DHT22;75222;52.004;5.908;2024-03-02T04:00:57;9.20;80.00
42037;DHT22;75222;52.004;5.908;2024-03-02T04:03:23;9.20;80.10
42037;DHT22;75222;52.004;5.908;2024-03-02T04:05:48;9.20;80.30
42037;DHT22;75222;52.004;5.908;2024-03-02T04:08:14;9.10;80.50
42037;DHT22;75222;52.004;5.908;2024-03-02T04:10:39;9.10;80.60
42037;DHT22;75222;52.004;5.908;2024-03-02T04:13:05;9.10;81.00
42037;DHT22;75222;52.004;5.908;2024-03-02T04:15:31;9.00;81.10
42037;DHT22;75222;52.004;5.908;2024-03-02T04:17:56;9.00;81.00
42037;DHT22;75222;52.004;5.908;2024-03-02T04:20:22;9.00;81.20
42037;DHT22;75222;52.004;5.908;2024-03-02T04:22:47;9.00;81.40
42037;DHT22;75222;52.004;5.908;2024-03-02T04:25:13;8.90;81.60
42037;DHT22;75222;52.004;5.908;2024-03-02T04:27:39;8.90;81.70
42037;DHT22;75222;52.004;5.908;2024-03-02T04:30:05;8.90;81.60
42037;DHT22;75222;52.004;5.908;2024-03-02T04:32:31;9.00;81.60
42037;DHT22;75222;52.004;5.908;2024-03-02T04:34:57;8.90;82.40
42037;DHT22;75222;52.004;5.908;2024-03-02T04:37:22;8.90;81.70
42037;DHT22;75222;52.004;5.908;2024-03-02T04:39:48;8.90;81.70
42037;DHT22;75222;52.004;5.908;2024-03-02T04:42:13;8.90;81.70
42037;DHT22;75222;52.004;5.908;2024-03-02T04:44:39;8.90;81.80
42037;DHT22;75222;52.004;5.908;2024-03-02T04:47:05;8.90;81.90
42037;DHT22;75222;52.004;5.908;2024-03-02T04:49:30;8.90;81.80
42037;DHT22;75222;52.004;5.908;2024-03-02T04:51:56;8.90;81.90
42037;DHT22;75222;52.004;5.908;2024-03-02T04:54:25;8.90;81.90
42037;DHT22;75222;52.004;5.908;2024-03-02T04:56:51;8.90;81.80
42037;DHT22;75222;52.004;5.908;2024-03-02T04:59:17;8.90;81.80
42037;DHT22;75222;52.004;5.908;2024-03-02T05:01:43;8.90;81.80
42037;DHT22;75222;52.004;5.908;2024-03-02T05:04:09;8.90;81.90
42037;DHT22;75222;52.004;5.908;2024-03-02T05:06:37;8.80;81.90
42037;DHT22;75222;52.004;5.908;2024-03-02T05:09:03;8.80;82.00
42037;DHT22;75222;52.004;5.908;2024-03-02T05:11:29;8.80;82.10
42037;DHT22;75222;52.004;5.908;2024-03-02T05:14:17;8.80;82.20
42037;DHT22;75222;52.004;5.908;2024-03-02T05:16:43;8.70;82.20
42037;DHT22;75222;52.004;5.908;2024-03-02T05:19:08;8.70;82.30
42037;DHT22;75222;52.004;5.908;2024-03-02T05:21:34;8.60;82.40
42037;DHT22;75222;52.004;5.908;2024-03-02T05:24:00;8.60;82.60
42037;DHT22;75222;52.004;5.908;2024-03-02T05:26:26;8.60;82.60
42037;DHT22;75222;52.004;5.908;2024-03-02T05:28:52;8.60;82.60
42037;DHT22;75222;52.004;5.908;2024-03-02T05:31:17;8.60;82.80
42037;DHT22;75222;52.004;5.908;2024-03-02T05:33:43;8.50;82.70
42037;DHT22;75222;52.004;5.908;2024-03-02T05:36:09;8.50;82.80
42037;DHT22;75222;52.004;5.908;2024-03-02T05:38:35;8.50;82.80
42037;DHT22;75222;52.004;5.908;2024-03-02T05:41:01;8.50;82.80
42037;DHT22;75222;52.004;5.908;2024-03-02T05:43:26;8.40;82.90
42037;DHT22;75222;52.004;5.908;2024-03-02T05:45:52;8.40;82.90
42037;DHT22;75222;52.004;5.908;2024-03-02T05:48:17;8.40;83.00
42037;DHT22;75222;52.004;5.908;2024-03-02T05:50:43;8.40;83.00
42037;DHT22;75222;52.004;5.908;2024-03-02T05:53:09;8.30;82.90
42037;DHT22;75222;52.004;5.908;2024-03-02T05:55:35;8.30;82.90
42037;DHT22;75222;52.004;5.908;2024-03-02T05:58:00;8.30;82.90
42037;DHT22;75222;52.004;5.908;2024-03-02T06:00:32;8.30;82.80
42037;DHT22;75222;52.004;5.908;2024-03-02T06:02:58;8.30;82.80
42037;DHT22;75222;52.004;5.908;2024-03-02T06:05:24;8.30;82.70
42037;DHT22;75222;52.004;5.908;2024-03-02T06:07:50;8.30;82.80
42037;DHT22;75222;52.004;5.908;2024-03-02T06:10:16;8.30;82.80
42037;DHT22;75222;52.004;5.908;2024-03-02T06:12:41;8.30;82.70
42037;DHT22;75222;52.004;5.908;2024-03-02T06:15:07;8.30;82.70
42037;DHT22;75222;52.004;5.908;2024-03-02T06:17:35;8.30;82.70
42037;DHT22;75222;52.004;5.908;2024-03-02T06:20:00;8.20;82.70
42037;DHT22;75222;52.004;5.908;2024-03-02T06:22:26;8.30;82.70
42037;DHT22;75222;52.004;5.908;2024-03-02T06:24:52;8.30;82.70
42037;DHT22;75222;52.004;5.908;2024-03-02T06:27:17;8.30;82.70
42037;DHT22;75222;52.004;5.908;2024-03-02T06:29:43;8.30;82.70
42037;DHT22;75222;52.004;5.908;2024-03-02T06:32:08;8.30;82.70
42037;DHT22;75222;52.004;5.908;2024-03-02T06:34:34;8.30;82.70
42037;DHT22;75222;52.004;5.908;2024-03-02T06:36:59;8.30;82.60
42037;DHT22;75222;52.004;5.908;2024-03-02T06:39:25;8.30;82.60
42037;DHT22;75222;52.004;5.908;2024-03-02T06:41:51;8.30;82.60
42037;DHT22;75222;52.004;5.908;2024-03-02T06:44:17;8.30;82.50
42037;DHT22;75222;52.004;5.908;2024-03-02T06:46:43;8.30;83.10
42037;DHT22;75222;52.004;5.908;2024-03-02T06:49:09;8.30;82.40
42037;DHT22;75222;52.004;5.908;2024-03-02T06:51:36;8.40;82.40
42037;DHT22;75222;52.004;5.908;2024-03-02T06:54:02;8.40;82.40
42037;DHT22;75222;52.004;5.908;2024-03-02T06:56:27;8.40;82.50
42037;DHT22;75222;52.004;5.908;2024-03-02T06:58:53;8.50;82.40
42037;DHT22;75222;52.004;5.908;2024-03-02T07:01:18;8.50;82.30
42037;DHT22;75222;52.004;5.908;2024-03-02T07:03:45;8.50;82.20
42037;DHT22;75222;52.004;5.908;2024-03-02T07:06:11;8.60;82.20
42037;DHT22;75222;52.004;5.908;2024-03-02T07:08:36;8.70;82.10
42037;DHT22;75222;52.004;5.908;2024-03-02T07:11:02;8.70;82.60
42037;DHT22;75222;52.004;5.908;2024-03-02T07:13:27;8.80;81.80
42037;DHT22;75222;52.004;5.908;2024-03-02T07:15:53;8.80;81.70
42037;DHT22;75222;52.004;5.908;2024-03-02T07:18:27;8.80;81.60
42037;DHT22;75222;52.004;5.908;2024-03-02T07:20:53;8.90;81.60
42037;DHT22;75222;52.004;5.908;2024-03-02T07:23:18;8.90;81.50
42037;DHT22;75222;52.004;5.908;2024-03-02T07:25:46;9.00;81.40
42037;DHT22;75222;52.004;5.908;2024-03-02T07:28:11;9.00;81.30
42037;DHT22;75222;52.004;5.908;2024-03-02T07:30:37;9.10;81.20
42037;DHT22;75222;52.004;5.908;2024-03-02T07:33:04;9.00;81.10
42037;DHT22;75222;52.004;5.908;2024-03-02T07:35:30;9.00;81.10
42037;DHT22;75222;52.004;5.908;2024-03-02T07:37:57;9.10;81.20
42037;DHT22;75222;52.004;5.908;2024-03-02T07:40:23;9.00;81.10
42037;DHT22;75222;52.004;5.908;2024-03-02T07:42:48;9.00;81.20
42037;DHT22;75222;52.004;5.908;2024-03-02T07:45:14;9.10;81.10
42037;DHT22;75222;52.004;5.908;2024-03-02T07:47:40;9.10;81.60
42037;DHT22;75222;52.004;5.908;2024-03-02T07:50:06;9.10;80.90
42037;DHT22;75222;52.004;5.908;2024-03-02T07:52:32;9.20;80.80
42037;DHT22;75222;52.004;5.908;2024-03-02T07:54:58;9.30;80.60
42037;DHT22;75222;52.004;5.908;2024-03-02T07:57:25;9.40;80.40
42037;DHT22;75222;52.004;5.908;2024-03-02T07:59:50;9.60;80.10
42037;DHT22;75222;52.004;5.908;2024-03-02T08:02:16;9.70;80.30
42037;DHT22;75222;52.004;5.908;2024-03-02T08:04:42;9.60;79.60
42037;DHT22;75222;52.004;5.908;2024-03-02T08:07:07;9.60;79.30
42037;DHT22;75222;52.004;5.908;2024-03-02T08:09:34;9.70;79.40
42037;DHT22;75222;52.004;5.908;2024-03-02T08:12:00;9.80;80.10
42037;DHT22;75222;52.004;5.908;2024-03-02T08:14:25;9.80;79.20
42037;DHT22;75222;52.004;5.908;2024-03-02T08:16:51;9.80;79.30
42037;DHT22;75222;52.004;5.908;2024-03-02T08:19:17;9.90;79.20
42037;DHT22;75222;52.004;5.908;2024-03-02T08:21:43;9.90;78.90
42037;DHT22;75222;52.004;5.908;2024-03-02T08:24:09;10.00;78.90
42037;DHT22;75222;52.004;5.908;2024-03-02T08:26:34;10.00;78.80
42037;DHT22;75222;52.004;5.908;2024-03-02T08:29:00;10.00;78.60
42037;DHT22;75222;52.004;5.908;2024-03-02T08:31:30;10.10;78.40
42037;DHT22;75222;52.004;5.908;2024-03-02T08:33:55;10.10;78.20
42037;DHT22;75222;52.004;5.908;2024-03-02T08:36:25;10.10;78.10
42037;DHT22;75222;52.004;5.908;2024-03-02T08:38:50;10.10;77.80
42037;DHT22;75222;52.004;5.908;2024-03-02T08:41:16;10.10;77.70
42037;DHT22;75222;52.004;5.908;2024-03-02T08:43:42;10.20;77.70
42037;DHT22;75222;52.004;5.908;2024-03-02T08:46:08;10.20;77.50
42037;DHT22;75222;52.004;5.908;2024-03-02T08:48:34;10.20;77.20
42037;DHT22;75222;52.004;5.908;2024-03-02T08:51:00;10.30;77.20
42037;DHT22;75222;52.004;5.908;2024-03-02T08:53:25;10.40;77.00
42037;DHT22;75222;52.004;5.908;2024-03-02T08:55:51;10.40;76.60
42037;DHT22;75222;52.004;5.908;2024-03-02T08:58:17;10.40;76.20
42037;DHT22;75222;52.004;5.908;2024-03-02T09:00:43;10.40;76.40
42037;DHT22;75222;52.004;5.908;2024-03-02T09:03:08;10.40;76.30
42037;DHT22;75222;52.004;5.908;2024-03-02T09:05:34;10.50;75.90
42037;DHT22;75222;52.004;5.908;2024-03-02T09:07:59;10.60;76.10
42037;DHT22;75222;52.004;5.908;2024-03-02T09:10:25;10.60;76.00
42037;DHT22;75222;52.004;5.908;2024-03-02T09:12:50;10.60;75.80
42037;DHT22;75222;52.004;5.908;2024-03-02T09:15:16;10.60;75.70
42037;DHT22;75222;52.004;5.908;2024-03-02T09:17:41;10.60;75.10
42037;DHT22;75222;52.004;5.908;2024-03-02T09:20:07;10.60;74.90
42037;DHT22;75222;52.004;5.908;2024-03-02T09:22:33;10.60;75.20
42037;DHT22;75222;52.004;5.908;2024-03-02T09:24:58;10.70;74.90
42037;DHT22;75222;52.004;5.908;2024-03-02T09:27:24;10.70;74.60
42037;DHT22;75222;52.004;5.908;2024-03-02T09:29:50;10.80;74.70
42037;DHT22;75222;52.004;5.908;2024-03-02T09:32:15;10.80;74.20
42037;DHT22;75222;52.004;5.908;2024-03-02T09:34:41;10.70;74.50
42037;DHT22;75222;52.004;5.908;2024-03-02T09:37:07;10.70;73.80
42037;DHT22;75222;52.004;5.908;2024-03-02T09:39:33;10.80;74.00
42037;DHT22;75222;52.004;5.908;2024-03-02T09:42:01;10.80;73.70
42037;DHT22;75222;52.004;5.908;2024-03-02T09:44:29;10.90;73.30
42037;DHT22;75222;52.004;5.908;2024-03-02T09:46:55;10.80;72.60
42037;DHT22;75222;52.004;5.908;2024-03-02T09:49:21;10.80;73.20
42037;DHT22;75222;52.004;5.908;2024-03-02T09:51:48;10.90;73.10
42037;DHT22;75222;52.004;5.908;2024-03-02T09:54:15;10.90;73.10
42037;DHT22;75222;52.004;5.908;2024-03-02T09:56:41;10.90;72.60
42037;DHT22;75222;52.004;5.908;2024-03-02T09:59:07;10.90;72.80
42037;DHT22;75222;52.004;5.908;2024-03-02T10:01:32;10.90;72.60
42037;DHT22;75222;52.004;5.908;2024-03-02T10:04:01;11.00;72.70
42037;DHT22;75222;52.004;5.908;2024-03-02T10:06:30;11.00;72.20
42037;DHT22;75222;52.004;5.908;2024-03-02T10:08:55;11.00;71.70
42037;DHT22;75222;52.004;5.908;2024-03-02T10:11:31;11.00;71.60
42037;DHT22;75222;52.004;5.908;2024-03-02T10:14:11;11.10;72.00
42037;DHT22;75222;52.004;5.908;2024-03-02T10:16:38;11.20;71.60
42037;DHT22;75222;52.004;5.908;2024-03-02T10:21:43;11.30;71.40
42037;DHT22;75222;52.004;5.908;2024-03-02T10:24:09;11.30;70.80
42037;DHT22;75222;52.004;5.908;2024-03-02T10:26:35;11.30;70.20
42037;DHT22;75222;52.004;5.908;2024-03-02T10:29:00;11.30;70.60
42037;DHT22;75222;52.004;5.908;2024-03-02T10:31:28;11.30;70.50
42037;DHT22;75222;52.004;5.908;2024-03-02T10:33:57;11.40;70.40
42037;DHT22;75222;52.004;5.908;2024-03-02T10:36:23;11.60;70.60
42037;DHT22;75222;52.004;5.908;2024-03-02T10:38:51;11.60;69.80
42037;DHT22;75222;52.004;5.908;2024-03-02T10:41:23;11.60;69.30
42037;DHT22;75222;52.004;5.908;2024-03-02T10:43:52;11.60;68.70
42037;DHT22;75222;52.004;5.908;2024-03-02T10:46:21;11.60;68.20
42037;DHT22;75222;52.004;5.908;2024-03-02T10:48:48;11.60;68.20
42037;DHT22;75222;52.004;5.908;2024-03-02T10:51:14;11.70;68.10
42037;DHT22;75222;52.004;5.908;2024-03-02T10:53:40;11.70;67.90
42037;DHT22;75222;52.004;5.908;2024-03-02T10:56:07;11.70;67.90
42037;DHT22;75222;52.004;5.908;2024-03-02T10:58:35;11.80;67.90
42037;DHT22;75222;52.004;5.908;2024-03-02T11:01:05;11.80;67.60
42037;DHT22;75222;52.004;5.908;2024-03-02T11:03:35;11.90;67.40
42037;DHT22;75222;52.004;5.908;2024-03-02T11:06:03;11.90;67.40
42037;DHT22;75222;52.004;5.908;2024-03-02T11:08:34;12.00;67.70
42037;DHT22;75222;52.004;5.908;2024-03-02T11:11:15;12.00;66.70
42037;DHT22;75222;52.004;5.908;2024-03-02T11:13:47;12.00;67.00
42037;DHT22;75222;52.004;5.908;2024-03-02T11:16:31;12.00;67.50
42037;DHT22;75222;52.004;5.908;2024-03-02T11:19:11;12.20;67.10
42037;DHT22;75222;52.004;5.908;2024-03-02T11:21:37;12.30;67.20
42037;DHT22;75222;52.004;5.908;2024-03-02T11:26:51;12.30;66.50
42037;DHT22;75222;52.004;5.908;2024-03-02T11:32:03;12.30;66.90
42037;DHT22;75222;52.004;5.908;2024-03-02T11:34:34;12.20;66.60
42037;DHT22;75222;52.004;5.908;2024-03-02T11:37:04;12.20;66.60
42037;DHT22;75222;52.004;5.908;2024-03-02T11:39:30;12.20;67.10
42037;DHT22;75222;52.004;5.908;2024-03-02T11:41:58;12.30;67.30
42037;DHT22;75222;52.004;5.908;2024-03-02T11:44:28;12.30;66.60
42037;DHT22;75222;52.004;5.908;2024-03-02T11:47:15;12.30;66.00
42037;DHT22;75222;52.004;5.908;2024-03-02T11:49:48;12.30;66.10
42037;DHT22;75222;52.004;5.908;2024-03-02T11:52:15;12.40;66.30
42037;DHT22;75222;52.004;5.908;2024-03-02T11:54:44;12.40;66.40
42037;DHT22;75222;52.004;5.908;2024-03-02T11:57:14;12.40;65.80
42037;DHT22;75222;52.004;5.908;2024-03-02T11:59:41;12.40;66.60
42037;DHT22;75222;52.004;5.908;2024-03-02T12:02:07;12.50;66.40
42037;DHT22;75222;52.004;5.908;2024-03-02T12:04:38;12.60;66.30
42037;DHT22;75222;52.004;5.908;2024-03-02T12:07:03;12.60;66.30
42037;DHT22;75222;52.004;5.908;2024-03-02T12:09:30;12.70;66.00
42037;DHT22;75222;52.004;5.908;2024-03-02T12:12:09;12.80;65.40
42037;DHT22;75222;52.004;5.908;2024-03-02T12:14:36;12.90;65.30
42037;DHT22;75222;52.004;5.908;2024-03-02T12:17:03;12.90;64.80
42037;DHT22;75222;52.004;5.908;2024-03-02T12:19:29;12.90;64.70
42037;DHT22;75222;52.004;5.908;2024-03-02T12:21:56;13.00;64.60
42037;DHT22;75222;52.004;5.908;2024-03-02T12:24:22;13.00;64.20
42037;DHT22;75222;52.004;5.908;2024-03-02T12:26:50;13.10;63.90
42037;DHT22;75222;52.004;5.908;2024-03-02T12:29:16;13.20;62.80
42037;DHT22;75222;52.004;5.908;2024-03-02T12:31:44;13.30;63.00
42037;DHT22;75222;52.004;5.908;2024-03-02T12:34:17;13.30;61.60
42037;DHT22;75222;52.004;5.908;2024-03-02T12:36:43;13.30;62.00
42037;DHT22;75222;52.004;5.908;2024-03-02T12:39:13;13.40;62.80
42037;DHT22;75222;52.004;5.908;2024-03-02T12:41:39;13.50;62.50
42037;DHT22;75222;52.004;5.908;2024-03-02T12:44:05;13.50;62.00
42037;DHT22;75222;52.004;5.908;2024-03-02T12:46:32;13.60;61.70
42037;DHT22;75222;52.004;5.908;2024-03-02T12:48:58;13.60;60.90
42037;DHT22;75222;52.004;5.908;2024-03-02T12:51:24;13.60;60.60
42037;DHT22;75222;52.004;5.908;2024-03-02T12:54:09;13.70;61.40
42037;DHT22;75222;52.004;5.908;2024-03-02T12:56:36;13.80;60.30
42037;DHT22;75222;52.004;5.908;2024-03-02T12:59:03;13.90;60.40
42037;DHT22;75222;52.004;5.908;2024-03-02T13:01:29;14.10;60.30
42037;DHT22;75222;52.004;5.908;2024-03-02T13:03:54;14.20;60.10
42037;DHT22;75222;52.004;5.908;2024-03-02T13:06:23;14.40;59.60
42037;DHT22;75222;52.004;5.908;2024-03-02T13:08:50;14.60;59.50
42037;DHT22;75222;52.004;5.908;2024-03-02T13:11:16;14.80;59.00
42037;DHT22;75222;52.004;5.908;2024-03-02T13:13:42;14.80;58.90
42037;DHT22;75222;52.004;5.908;2024-03-02T13:16:11;14.80;59.40
42037;DHT22;75222;52.004;5.908;2024-03-02T13:18:41;14.70;59.70
42037;DHT22;75222;52.004;5.908;2024-03-02T13:21:08;14.70;61.00
42037;DHT22;75222;52.004;5.908;2024-03-02T13:23:33;14.70;60.10
42037;DHT22;75222;52.004;5.908;2024-03-02T13:26:00;14.50;60.70
42037;DHT22;75222;52.004;5.908;2024-03-02T13:28:26;14.60;61.20
42037;DHT22;75222;52.004;5.908;2024-03-02T13:30:51;14.70;61.30
42037;DHT22;75222;52.004;5.908;2024-03-02T13:33:17;14.70;61.10
42037;DHT22;75222;52.004;5.908;2024-03-02T13:35:48;14.80;61.40
42037;DHT22;75222;52.004;5.908;2024-03-02T13:38:16;14.70;61.20
42037;DHT22;75222;52.004;5.908;2024-03-02T13:40:41;14.60;61.10
42037;DHT22;75222;52.004;5.908;2024-03-02T13:43:07;14.80;61.30
42037;DHT22;75222;52.004;5.908;2024-03-02T13:45:32;14.70;60.70
42037;DHT22;75222;52.004;5.908;2024-03-02T13:47:58;14.80;61.20
42037;DHT22;75222;52.004;5.908;2024-03-02T13:50:25;15.00;61.30
42037;DHT22;75222;52.004;5.908;2024-03-02T13:52:50;15.20;61.10
42037;DHT22;75222;52.004;5.908;2024-03-02T13:55:16;15.10;60.00
42037;DHT22;75222;52.004;5.908;2024-03-02T13:57:42;15.00;60.00
42037;DHT22;75222;52.004;5.908;2024-03-02T14:00:08;14.90;60.80
42037;DHT22;75222;52.004;5.908;2024-03-02T14:02:36;14.80;60.30
42037;DHT22;75222;52.004;5.908;2024-03-02T14:05:02;14.80;60.10
42037;DHT22;75222;52.004;5.908;2024-03-02T14:07:27;14.70;60.40
42037;DHT22;75222;52.004;5.908;2024-03-02T14:09:53;14.60;60.40
42037;DHT22;75222;52.004;5.908;2024-03-02T14:12:18;14.40;59.90
42037;DHT22;75222;52.004;5.908;2024-03-02T14:14:44;14.30;60.40
42037;DHT22;75222;52.004;5.908;2024-03-02T14:17:09;14.40;60.80
42037;DHT22;75222;52.004;5.908;2024-03-02T14:19:40;14.40;60.40
42037;DHT22;75222;52.004;5.908;2024-03-02T14:22:05;14.40;60.60
42037;DHT22;75222;52.004;5.908;2024-03-02T14:24:31;14.50;60.70
42037;DHT22;75222;52.004;5.908;2024-03-02T14:26:56;14.60;60.50
42037;DHT22;75222;52.004;5.908;2024-03-02T14:29:28;14.80;60.30
42037;DHT22;75222;52.004;5.908;2024-03-02T14:31:54;14.80;59.20
42037;DHT22;75222;52.004;5.908;2024-03-02T14:34:19;14.80;59.70
42037;DHT22;75222;52.004;5.908;2024-03-02T14:36:45;14.80;59.60
42037;DHT22;75222;52.004;5.908;2024-03-02T14:39:11;14.90;58.80
42037;DHT22;75222;52.004;5.908;2024-03-02T14:41:37;14.90;59.20
42037;DHT22;75222;52.004;5.908;2024-03-02T14:44:02;14.90;58.60
42037;DHT22;75222;52.004;5.908;2024-03-02T14:46:28;14.90;58.80
42037;DHT22;75222;52.004;5.908;2024-03-02T14:48:54;14.90;59.10
42037;DHT22;75222;52.004;5.908;2024-03-02T14:51:20;14.90;59.10
42037;DHT22;75222;52.004;5.908;2024-03-02T14:53:45;15.00;59.40
42037;DHT22;75222;52.004;5.908;2024-03-02T14:56:11;14.90;59.20
42037;DHT22;75222;52.004;5.908;2024-03-02T14:58:38;14.90;59.40
42037;DHT22;75222;52.004;5.908;2024-03-02T15:01:04;14.80;59.10
42037;DHT22;75222;52.004;5.908;2024-03-02T15:03:31;14.80;59.60
42037;DHT22;75222;52.004;5.908;2024-03-02T15:05:57;14.70;59.90
42037;DHT22;75222;52.004;5.908;2024-03-02T15:08:23;14.60;60.90
42037;DHT22;75222;52.004;5.908;2024-03-02T15:10:48;14.50;60.60
42037;DHT22;75222;52.004;5.908;2024-03-02T15:13:14;14.50;60.90
42037;DHT22;75222;52.004;5.908;2024-03-02T15:15:40;14.50;60.80
42037;DHT22;75222;52.004;5.908;2024-03-02T15:18:06;14.40;60.70
42037;DHT22;75222;52.004;5.908;2024-03-02T15:20:32;14.40;60.80
42037;DHT22;75222;52.004;5.908;2024-03-02T15:22:57;14.40;61.00
42037;DHT22;75222;52.004;5.908;2024-03-02T15:25:23;14.40;61.30
42037;DHT22;75222;52.004;5.908;2024-03-02T15:27:48;14.50;61.50
42037;DHT22;75222;52.004;5.908;2024-03-02T15:30:14;14.40;61.30
42037;DHT22;75222;52.004;5.908;2024-03-02T15:32:40;14.50;61.50
42037;DHT22;75222;52.004;5.908;2024-03-02T15:35:06;14.50;61.50
42037;DHT22;75222;52.004;5.908;2024-03-02T15:37:32;14.40;61.50
42037;DHT22;75222;52.004;5.908;2024-03-02T15:39:57;14.40;61.60
42037;DHT22;75222;52.004;5.908;2024-03-02T15:42:32;14.30;62.00
42037;DHT22;75222;52.004;5.908;2024-03-02T15:44:57;14.30;62.00
42037;DHT22;75222;52.004;5.908;2024-03-02T15:47:23;14.20;62.20
42037;DHT22;75222;52.004;5.908;2024-03-02T15:49:49;14.20;62.40